Latest Weather Observations for Camooweal

IDD60801

Issued at 3:31 pm CST Sunday 4 December 2016 (issued every 30 minutes, with the page automatically refreshed every 10 minutes)

About weather observations | Map of weather stations | Latest weather observations for NT | Other Formats
Station Details ID: 037010 Name: CAMOOWEAL TOWNSHIP Lat: -19.92 Lon: 138.12 Height: 231.2 m
Data from the previous 72 hours. | See also: Recent months at Camooweal
Date/Time
CST
Temp
°C
App
Temp
°C
Dew
Point
°C
Rel
Hum
%
Delta-T
°C
Wind Press
QNH
hPa
Press
MSL
hPa
Rain since
9am
mm
Dir  Spd
km/h
Gust
km/h
Spd
kts
Gust
kts
04/03:00pm 40.8 38.3 10.9 17 18.1 ESE 15 26 8 14 1008.1 1006.3 0.0
04/02:30pm 39.3 37.4 10.6 18 17.2 ENE 11 20 6 11 1008.6 1006.8 0.0
04/02:00pm 40.1 37.2 9.5 16 18.1 NNE 15 32 8 17 1008.9 1007.1 0.0
04/01:30pm 39.0 37.5 12.0 20 16.5 SE 11 24 6 13 1009.5 1007.8 0.0
04/01:00pm 39.8 38.8 13.4 21 16.5 SSW 11 20 6 11 1009.9 1008.2 0.0
04/12:30pm 37.9 37.4 13.8 23 15.0 WSW 9 17 5 9 1010.5 1008.8 0.0
04/12:00pm 37.2 36.7 13.9 25 14.5 WSW 9 13 5 7 1011.1 1009.3 0.0
04/11:30am 38.0 37.9 13.9 24 15.1 SE 7 15 4 8 1011.5 1009.7 0.0
04/11:00am 38.2 37.1 15.3 25 14.6 SW 15 20 8 11 1011.8 1010.0 0.0
04/10:30am 37.6 37.3 15.4 27 14.1 W 11 20 6 11 1012.3 1010.5 0.0
04/10:00am 37.0 35.7 14.9 27 14.0 SW 15 26 8 14 1012.7 1010.9 0.0
04/09:30am 36.9 35.6 15.9 28 13.4 SW 17 28 9 15 1013.0 1011.2 0.0
04/09:00am 35.7 33.9 15.4 29 12.9 SW 19 28 10 15 1013.1 1011.3 0.0
04/08:30am 34.7 32.9 15.6 32 12.1 WSW 19 24 10 13 1013.2 1011.4 0.0
04/08:00am 33.8 32.1 15.7 33 11.4 WSW 19 26 10 14 1013.1 1011.3 0.0
04/07:30am 32.2 30.5 15.7 37 10.4 W 19 26 10 14 1013.0 1011.2 0.0
04/07:00am 30.2 31.1 16.6 44 8.6 WNW 7 11 4 6 1012.6 1010.8 0.0
04/06:30am 28.2 29.1 16.1 47 7.5 NNW 6 9 3 5 1012.3 1010.5 0.0
04/06:00am 26.8 27.7 16.1 52 6.6 NW 6 7 3 4 1011.8 1010.0 0.0
04/05:30am 26.5 27.8 16.1 52 6.5 NW 4 6 2 3 1011.2 1009.4 0.0
04/05:00am 26.4 27.7 16.1 53 6.4 WNW 4 7 2 4 1010.7 1008.9 0.0
04/04:30am 26.7 28.6 15.7 51 6.8 CALM 0 6 0 3 1010.3 1008.6 0.0
04/04:00am 27.3 28.0 15.7 49 7.2 WNW 6 9 3 5 1010.1 1008.4 0.0
04/03:30am 27.7 28.3 15.7 48 7.4 WNW 7 11 4 6 1009.9 1008.2 0.0
04/03:00am 27.6 28.3 15.6 48 7.4 NW 6 9 3 5 1009.8 1008.1 0.0
04/02:30am 27.0 28.6 16.9 54 6.4 W 4 7 2 4 1009.7 1008.0 0.0
04/02:00am 27.2 28.6 17.7 56 6.0 WNW 7 9 4 5 1010.0 1008.3 0.0
04/01:30am 26.7 30.5 20.1 67 4.3 CALM 0 0 0 0 1010.3 1008.6 0.0
04/01:00am 26.8 30.7 20.4 68 4.2 CALM 0 7 0 4 1010.5 1008.8 0.0
04/12:30am 26.8 29.4 20.4 68 4.2 SW 7 9 4 5 1010.9 1009.1 0.0
04/12:00am 26.8 29.9 19.4 64 4.8 WNW 2 7 1 4 1011.0 1009.2 0.0
 
Date/Time
CST
Temp
°C
App
Temp
°C
Dew
Point
°C
Rel
Hum
%
Delta-T
°C
Wind Press
QNH
hPa
Press
MSL
hPa
Rain since
9am
mm
Dir  Spd
km/h
Gust
km/h
Spd
kts
Gust
kts
03/11:30pm 28.4 31.6 18.8 56 6.2 CALM 0 0 0 0 1011.1 1009.3 0.0
03/11:00pm 29.5 31.4 16.7 46 8.1 NNE 2 6 1 3 1011.2 1009.4 0.0
03/10:30pm 30.7 32.0 17.0 43 8.7 NE 6 9 3 5 1011.3 1009.5 0.0
03/10:00pm 30.5 31.7 18.2 47 8.0 NE 9 13 5 7 1011.3 1009.5 0.0
03/09:30pm 30.9 33.3 17.9 45 8.4 NW 2 9 1 5 1010.9 1009.1 0.0
03/09:00pm 31.7 33.8 17.2 42 9.3 WSW 2 6 1 3 1010.4 1008.7 0.0
03/08:30pm 32.2 33.1 16.5 39 10.0 S 7 9 4 5 1010.2 1008.5 0.0
03/08:00pm 32.9 33.1 16.7 38 10.4 SSW 11 13 6 7 1009.9 1008.2 0.0
03/07:30pm 33.9 35.3 15.4 33 11.7 WNW 2 6 1 3 1009.6 1007.9 0.0
03/07:00pm 34.0 34.6 15.9 33 11.5 SSE 7 11 4 6 1009.2 1007.4 0.0
03/06:30pm 34.9 36.3 15.3 31 12.4 NE 2 9 1 5 1008.7 1006.9 0.0
03/06:00pm 35.4 35.2 14.6 28 13.0 SSE 9 11 5 6 1008.4 1006.6 0.0
03/05:30pm 37.7 37.4 11.6 21 15.8 NNE 4 9 2 5 1008.2 1006.4 0.0
03/05:00pm 38.2 37.1 12.0 21 15.9 N 9 11 5 6 1008.0 1006.2 0.0
03/04:30pm 38.6 36.6 11.6 20 16.4 NNE 13 20 7 11 1007.9 1006.1 0.0
03/04:00pm 38.5 38.1 13.0 22 15.8 NE 7 9 4 5 1007.9 1006.1 0.0
03/03:30pm 38.7 38.2 12.5 21 16.1 WNW 7 13 4 7 1008.2 1006.4 0.0
03/03:00pm 37.5 36.7 14.1 24 14.6 NW 11 17 6 9 1008.7 1006.9 0.0
03/02:30pm 37.7 36.6 14.3 25 14.7 N 13 20 7 11 1009.1 1007.3 0.0
03/02:00pm 37.9 37.0 13.8 23 15.0 NNW 11 24 6 13 1009.6 1007.9 0.0
03/01:30pm 38.0 37.7 14.5 24 14.8 N 9 19 5 10 1010.0 1008.3 0.0
03/01:00pm 38.3 36.2 13.5 23 15.4 NNW 17 30 9 16 1010.4 1008.7 0.0
03/12:30pm 39.5 37.9 13.8 22 16.1 N 15 26 8 14 1010.8 1009.0 0.0
03/12:00pm 39.0 37.6 13.4 22 15.9 NNW 13 26 7 14 1011.2 1009.4 0.0
03/11:30am 38.1 36.3 13.3 22 15.4 NNW 15 30 8 16 1011.5 1009.7 0.0
03/11:00am 37.9 36.9 14.5 25 14.7 N 13 20 7 11 1011.8 1010.0 0.0
03/10:30am 37.2 36.4 16.2 29 13.5 N 15 24 8 13 1011.9 1010.1 0.0
03/10:00am 35.6 35.3 16.4 32 12.3 N 13 20 7 11 1012.1 1010.3 0.0
03/09:30am 34.4 33.1 16.7 34 11.4 NNW 19 24 10 13 1012.2 1010.4 0.0
03/09:00am 33.6 33.1 17.7 38 10.3 NNW 17 22 9 12 1012.3 1010.5 0.0
03/08:30am 32.2 32.5 18.0 42 9.2 N 13 22 7 12 1012.3 1010.5 4.6
03/08:00am 29.8 29.2 17.6 48 7.8 N 17 24 9 13 1011.9 1010.1 4.6
03/07:30am 28.4 28.4 18.2 54 6.6 NNW 15 20 8 11 1011.4 1009.6 4.6
03/07:00am 27.4 27.9 18.4 58 5.8 NNW 13 19 7 10 1011.5 1009.7 4.6
03/06:30am 27.3 27.0 18.3 58 5.8 N 17 22 9 12 1011.7 1009.9 4.6
03/06:00am 27.1 27.5 18.1 58 5.8 N 13 19 7 10 1011.7 1009.9 4.6
03/05:30am 26.7 26.4 18.3 60 5.4 NE 17 26 9 14 1011.6 1009.8 4.6
03/05:00am 26.5 26.5 18.9 63 4.9 NE 17 22 9 12 1011.8 1010.0 4.6
03/04:30am 26.5 25.9 18.9 63 4.9 ENE 20 32 11 17 1012.0 1010.2 4.6
03/04:00am 26.6 26.1 19.0 63 4.9 ENE 20 30 11 16 1011.8 1010.0 4.6
03/03:30am 26.2 25.4 19.3 65 4.5 ENE 22 33 12 18 1011.8 1010.0 4.6
03/03:00am 26.3 25.1 19.2 65 4.6 ENE 24 35 13 19 1011.6 1009.8 4.6
03/02:30am 26.4 26.8 19.0 63 4.8 ESE 15 26 8 14 1011.7 1009.9 4.6
03/02:00am 26.3 28.6 19.4 66 4.5 N 6 9 3 5 1011.3 1009.5 4.6
03/01:30am 26.5 28.3 19.6 66 4.5 N 9 13 5 7 1011.2 1009.4 4.6
03/01:00am 26.5 27.9 19.6 66 4.5 N 11 15 6 8 1011.5 1009.7 4.4
03/12:30am 26.2 27.7 20.5 71 3.8 ENE 13 15 7 8 1011.7 1009.9 4.4
03/12:00am 25.9 28.2 20.7 73 3.4 ENE 9 13 5 7 1012.5 1010.7 4.4
 
Date/Time
CST
Temp
°C
App
Temp
°C
Dew
Point
°C
Rel
Hum
%
Delta-T
°C
Wind Press
QNH
hPa
Press
MSL
hPa
Rain since
9am
mm
Dir  Spd
km/h
Gust
km/h
Spd
kts
Gust
kts
02/11:30pm 24.9 26.4 21.2 80 2.5 ESE 15 17 8 9 1013.1 1011.3 4.4
02/11:00pm 23.4 24.7 20.9 86 1.6 SE 15 20 8 11 1013.6 1011.9 4.2
02/10:30pm 23.2 22.0 20.0 82 2.1 SE 26 35 14 19 1014.5 1012.8 3.4
02/10:16pm 23.0 20.6 20.3 85 1.8 SE 33 52 18 28 1014.8 1013.1 3.4
02/10:00pm 23.6 20.8 21.7 89 1.3 ESE 39 50 21 27 1015.0 1013.3 3.2
02/09:59pm 23.7 20.9 21.8 89 1.3 ESE 39 50 21 27 1015.2 1013.4 3.2
02/09:30pm 26.6 24.3 18.5 61 5.2 E 28 41 15 22 1014.9 1013.2 0.0
02/09:14pm 27.3 25.7 18.3 58 5.8 SSE 24 41 13 22 1014.3 1012.6 0.0
02/09:00pm 27.3 28.2 18.3 58 5.8 ESE 11 20 6 11 1013.4 1011.6 0.0
02/08:38pm 26.5 23.4 18.4 61 5.2 E 32 50 17 27 1013.0 1011.2 0.0
02/08:30pm 27.8 24.4 19.1 59 5.7 ENE 35 50 19 27 1012.8 1011.0 0.0
02/08:00pm 32.3 27.6 17.7 41 9.4 NE 39 57 21 31 1011.2 1009.4 0.0
02/07:54pm 32.9 29.5 16.7 38 10.4 NE 30 57 16 31 1011.2 1009.4 0.0
02/07:30pm 33.4 30.5 14.0 31 12.0 N 22 32 12 17 1009.4 1007.6 0.0
02/07:00pm 33.8 29.3 14.8 32 11.9 N 32 46 17 25 1008.8 1007.0 0.0
02/06:40pm 35.7 33.5 14.9 29 13.1 NNE 20 48 11 26 1008.4 1006.6 0.0
02/06:30pm 37.4 35.6 13.4 24 14.9 NNE 15 24 8 13 1008.0 1006.2 0.0
02/06:00pm 37.8 36.2 13.8 24 15.0 N 15 20 8 11 1007.8 1006.0 0.0
02/05:30pm 38.1 35.9 13.3 22 15.4 N 17 26 9 14 1007.5 1005.7 0.0
02/05:00pm 39.2 37.6 12.9 21 16.3 NNE 13 24 7 13 1007.2 1005.4 0.0
02/04:30pm 39.0 36.6 12.7 21 16.2 N 17 26 9 14 1007.1 1005.3 0.0
02/04:00pm 39.6 37.5 12.4 20 16.7 NNE 15 26 8 14 1007.4 1005.6 0.0
02/03:30pm 40.0 37.9 13.5 21 16.6 N 17 28 9 15 1007.6 1005.8 0.0
02/03:00pm 38.7 37.0 12.5 21 16.1 NE 13 20 7 11 1008.1 1006.3 0.0
02/02:30pm 38.3 36.3 12.8 22 15.7 N 15 20 8 11 1008.7 1006.9 0.0
02/02:00pm 38.4 36.1 12.9 22 15.7 NNE 17 24 9 13 1009.0 1007.2 0.0
02/01:30pm 39.9 39.0 14.8 22 16.0 N 13 26 7 14 1009.3 1007.5 0.0
02/01:00pm 38.5 37.9 15.6 26 14.7 NW 13 26 7 14 1009.7 1008.0 0.0
02/12:30pm 37.5 36.6 15.9 28 13.9 NW 15 28 8 15 1010.3 1008.6 0.0
02/12:00pm 37.1 36.1 16.6 29 13.3 NNW 17 26 9 14 1011.0 1009.2 0.0
02/11:30am 36.2 35.0 17.4 33 12.3 NNW 20 35 11 19 1011.6 1009.8 0.0
02/11:00am 35.7 35.2 17.9 35 11.7 NNW 17 33 9 18 1011.9 1010.1 0.0
02/10:30am 34.9 34.7 18.5 38 10.8 NNW 17 32 9 17 1012.1 1010.3 0.0
02/10:00am 34.6 33.5 17.8 37 11.0 NNW 20 32 11 17 1012.3 1010.5 0.0
02/09:30am 33.1 32.0 17.7 40 10.0 NW 20 33 11 18 1012.4 1010.6 0.0
02/09:00am 32.4 31.3 17.8 41 9.5 NNW 20 30 11 16 1012.3 1010.5 0.0
02/08:30am 31.2 30.1 19.5 49 7.7 NNW 24 35 13 19 1012.3 1010.5 0.0
02/08:00am 30.5 29.7 20.1 53 6.9 NNW 24 35 13 19 1012.3 1010.5 0.0
02/07:30am 30.0 30.1 20.3 56 6.5 NNW 20 32 11 17 1012.3 1010.5 0.0
02/07:00am 28.9 29.2 20.4 60 5.7 NNW 19 28 10 15 1011.8 1010.0 0.0
02/06:30am 28.1 29.4 20.1 62 5.3 NNW 13 20 7 11 1011.3 1009.5 0.0
02/06:00am 27.3 29.3 19.9 64 4.9 NNW 9 13 5 7 1010.8 1009.0 0.0
02/05:30am 27.0 28.6 19.9 65 4.7 N 11 15 6 8 1010.2 1008.5 0.0
02/05:00am 26.8 28.4 19.2 63 4.9 N 9 13 5 7 1009.9 1008.2 0.0
02/04:30am 27.3 28.4 18.9 60 5.5 N 11 13 6 7 1009.5 1007.8 0.0
02/04:00am 28.0 28.8 19.0 58 5.9 N 13 17 7 9 1009.2 1007.4 0.0
02/03:30am 28.5 29.2 18.9 56 6.3 N 13 17 7 9 1009.0 1007.2 0.0
02/03:00am 28.9 29.5 18.7 54 6.6 N 13 17 7 9 1008.6 1006.8 0.0
02/02:30am 29.5 29.5 18.9 53 6.9 N 17 24 9 13 1008.3 1006.5 0.0
02/02:00am 29.8 29.5 18.3 50 7.4 N 17 20 9 11 1008.2 1006.4 0.0
02/01:30am 30.3 30.5 17.7 46 8.1 N 13 17 7 9 1008.3 1006.5 0.0
02/01:00am 30.6 30.6 17.3 45 8.5 N 13 17 7 9 1008.5 1006.7 0.0
02/12:30am 31.2 31.2 17.1 42 9.0 N 13 19 7 10 1008.5 1006.7 0.0
02/12:00am 32.0 31.1 18.2 43 9.0 N 20 28 11 15 1008.8 1007.0 0.0
 
Date/Time
CST
Temp
°C
App
Temp
°C
Dew
Point
°C
Rel
Hum
%
Delta-T
°C
Wind Press
QNH
hPa
Press
MSL
hPa
Rain since
9am
mm
Dir  Spd
km/h
Gust
km/h
Spd
kts
Gust
kts
01/11:30pm 32.0 32.1 17.5 42 9.4 N 13 19 7 10 1008.7 1006.9 0.0
01/11:00pm 32.1 31.1 14.7 35 10.8 N 13 19 7 10 1008.7 1006.9 0.0
01/10:30pm 32.4 30.6 11.0 27 12.6 N 11 17 6 9 1008.5 1006.7 0.0
01/10:00pm 32.8 30.6 10.8 26 12.9 NNE 13 20 7 11 1008.1 1006.3 0.0
01/09:30pm 32.4 30.5 9.2 24 13.3 NNE 9 13 5 7 1007.7 1005.9 0.0
01/09:00pm 33.0 31.3 8.5 22 13.8 NE 7 11 4 6 1007.3 1005.5 0.0
01/08:30pm 34.0 31.0 7.9 20 14.7 NNE 13 15 7 8 1006.8 1005.0 0.0
01/08:00pm 34.6 32.0 7.6 19 15.2 NE 11 13 6 7 1006.5 1004.7 0.0
01/07:30pm 35.6 33.2 6.8 17 16.1 NNE 9 13 5 7 1006.0 1004.3 0.0
01/07:00pm 36.2 33.7 6.4 16 16.6 NNE 9 11 5 6 1005.9 1004.2 0.0
01/06:30pm 37.3 34.9 5.3 14 17.6 NNE 7 11 4 6 1005.7 1004.0 0.0
01/06:00pm 38.3 36.1 6.1 14 18.0 NNE 7 9 4 5 1005.5 1003.7 0.0
01/05:30pm 39.2 35.8 5.7 13 18.7 NE 13 20 7 11 1005.5 1003.7 0.0
01/05:00pm 39.6 35.9 6.1 13 18.8 NE 15 24 8 13 1005.2 1003.4 0.0
01/04:30pm 39.8 37.6 5.1 12 19.3 N 6 13 3 7 1005.2 1003.4 0.0
01/04:00pm 40.3 38.2 6.6 13 19.1 NE 7 11 4 6 1005.4 1003.6 0.0
01/03:30pm 40.3 36.7 6.6 13 19.2 NE 15 24 8 13 1005.7 1004.0 0.0

Other Formats:

Comma delimited format used in spreadsheet applications
http://www.bom.gov.au/fwo/IDD60801/IDD60801.94255.axf

JavaScript Object Notation format (JSON) in row-major order
http://www.bom.gov.au/fwo/IDD60801/IDD60801.94255.json